Time;durP1;ratioP1;P1;durP2;ratioP2;P2;SDS_P1;SDS_P2;PMS_P1;PMS_P2;Temp;Humidity;BMP_temperature;BMP_pressure;BME280_temperature;BME280_humidity;BME280_pressure;Samples;Min_cycle;Max_cycle;Signal;HPM_P1;HPM_P2
2022/06/19 00:00:09;;;;;;;28.42;2.20;;;;;;;;;;6278020;22;20075;-69
2022/06/19 00:02:35;;;;;;;13.05;2.03;;;;;;;;;;6277972;22;20004;-69
2022/06/19 00:05:00;;;;;;;15.90;2.28;;;;;;;;;;6277875;22;19992;-69
2022/06/19 00:07:26;;;;;;;14.73;2.20;;;;;;;;;;6277586;22;20030;-69
2022/06/19 00:09:51;;;;;;;16.65;2.00;;;;;;;;;;6277471;22;20011;-69
2022/06/19 00:12:17;;;;;;;10.15;2.22;;;;;;;;;;6277852;22;19998;-69
2022/06/19 00:14:43;;;;;;;11.85;2.00;;;;;;;;;;6277984;22;20011;-69
2022/06/19 00:17:09;;;;;;;21.92;2.33;;;;;;;;;;6277776;22;20438;-69
2022/06/19 00:19:35;;;;;;;21.75;2.58;;;;;;;;;;6277820;22;19995;-69
2022/06/19 00:22:00;;;;;;;16.20;2.25;;;;;;;;;;6277698;22;20053;-69
2022/06/19 00:24:26;;;;;;;15.05;2.90;;;;;;;;;;6277481;22;20004;-69
2022/06/19 00:26:51;;;;;;;24.80;2.50;;;;;;;;;;6277625;22;20066;-69
2022/06/19 00:29:16;;;;;;;15.48;2.40;;;;;;;;;;6277623;22;20058;-69
2022/06/19 00:31:41;;;;;;;25.20;3.15;;;;;;;;;;6277747;22;20374;-69
2022/06/19 00:34:07;;;;;;;15.68;2.65;;;;;;;;;;6275867;22;20029;-69
2022/06/19 00:36:33;;;;;;;19.52;2.33;;;;;;;;;;6276497;22;20469;-69
2022/06/19 00:38:58;;;;;;;17.50;3.08;;;;;;;;;;6277033;22;20019;-70
2022/06/19 00:41:24;;;;;;;20.95;3.22;;;;;;;;;;6277600;22;20297;-69
2022/06/19 00:44:00;;;;;;;18.38;2.60;;;;;;;;;;6277703;22;20006;-69
2022/06/19 00:46:44;;;;;;;23.52;3.15;;;;;;;;;;6277550;22;20075;-69
2022/06/19 00:49:29;;;;;;;43.17;3.10;;;;;;;;;;6277650;22;20053;-69
2022/06/19 00:51:58;;;;;;;17.40;3.17;;;;;;;;;;6276406;22;20022;-69
2022/06/19 00:54:24;;;;;;;17.70;2.53;;;;;;;;;;6277146;22;20428;-69
2022/06/19 00:56:49;;;;;;;17.45;3.00;;;;;;;;;;6277620;22;20053;-69
2022/06/19 00:59:15;;;;;;;15.70;3.05;;;;;;;;;;6277357;22;20320;-69
2022/06/19 01:01:42;;;;;;;15.63;3.00;;;;;;;;;;6277453;22;20045;-69
2022/06/19 01:04:24;;;;;;;12.43;3.13;;;;;;;;;;6277380;22;20010;-69
2022/06/19 01:06:49;;;;;;;27.92;3.63;;;;;;;;;;6277431;22;20000;-69
2022/06/19 01:09:15;;;;;;;18.40;3.72;;;;;;;;;;6277214;22;20039;-69
2022/06/19 01:11:41;;;;;;;18.40;3.50;;;;;;;;;;6277629;22;19988;-69
2022/06/19 01:14:09;;;;;;;17.17;3.20;;;;;;;;;;6276901;22;20010;-69
2022/06/19 01:16:35;;;;;;;18.75;3.38;;;;;;;;;;6276933;22;20000;-69
2022/06/19 01:19:00;;;;;;;10.77;2.88;;;;;;;;;;6277122;22;20041;-69
2022/06/19 01:21:34;;;;;;;17.17;3.15;;;;;;;;;;6250257;22;20427;-69
2022/06/19 01:24:17;;;;;;;17.52;2.67;;;;;;;;;;6277215;22;20004;-69
2022/06/19 01:26:44;;;;;;;17.38;2.47;;;;;;;;;;6277228;22;20087;-69
2022/06/19 01:29:10;;;;;;;13.52;2.70;;;;;;;;;;6276901;22;20019;-69
2022/06/19 01:31:37;;;;;;;72.53;4.25;;;;;;;;;;6277306;22;20381;-69
2022/06/19 01:36:53;;;;;;;17.08;2.88;;;;;;;;;;6276614;22;20339;-69
2022/06/19 01:39:19;;;;;;;20.85;2.80;;;;;;;;;;6276701;22;20323;-69
2022/06/19 01:41:44;;;;;;;22.70;3.00;;;;;;;;;;6276897;22;20006;-69
2022/06/19 01:44:09;;;;;;;70.45;4.07;;;;;;;;;;6277244;22;19996;-69
2022/06/19 01:46:34;;;;;;;108.32;5.57;;;;;;;;;;6276895;22;20000;-69
2022/06/19 01:49:01;;;;;;;86.72;4.28;;;;;;;;;;6276505;22;20355;-69
2022/06/19 01:51:26;;;;;;;110.85;4.80;;;;;;;;;;6276889;22;20031;-69
2022/06/19 01:53:55;;;;;;;53.47;4.25;;;;;;;;;;6276813;22;20019;-69
2022/06/19 01:56:20;;;;;;;52.58;3.08;;;;;;;;;;6277236;22;20015;-69
2022/06/19 01:58:50;;;;;;;74.15;3.60;;;;;;;;;;6276651;22;19999;-69
2022/06/19 02:01:16;;;;;;;62.08;3.83;;;;;;;;;;6276515;22;20301;-69
2022/06/19 02:03:44;;;;;;;37.05;2.90;;;;;;;;;;6276807;22;20010;-69
2022/06/19 02:06:10;;;;;;;43.45;3.08;;;;;;;;;;6276800;22;20358;-69
2022/06/19 02:08:36;;;;;;;18.73;2.22;;;;;;;;;;6276718;22;20008;-69
2022/06/19 02:11:03;;;;;;;31.80;4.88;;;;;;;;;;6277223;22;20008;-69
2022/06/19 02:13:30;;;;;;;13.52;3.63;;;;;;;;;;6276741;22;19992;-69
2022/06/19 02:15:55;;;;;;;11.35;2.40;;;;;;;;;;6276692;22;20075;-69
2022/06/19 02:18:23;;;;;;;10.73;2.10;;;;;;;;;;6276722;22;20058;-69
2022/06/19 02:20:52;;;;;;;11.38;2.00;;;;;;;;;;6276810;22;19996;-69
2022/06/19 02:23:26;;;;;;;14.15;2.30;;;;;;;;;;6276877;22;20023;-69
2022/06/19 02:25:51;;;;;;;165.25;5.68;;;;;;;;;;6276665;22;20367;-69
2022/06/19 02:28:18;;;;;;;182.20;6.20;;;;;;;;;;6276705;22;19995;-69
2022/06/19 02:30:44;;;;;;;197.52;7.30;;;;;;;;;;6276267;22;20043;-69
2022/06/19 02:33:12;;;;;;;133.32;7.03;;;;;;;;;;6276187;22;20010;-69
2022/06/19 02:35:37;;;;;;;84.80;3.83;;;;;;;;;;6276586;22;20304;-69
2022/06/19 02:38:05;;;;;;;63.75;4.13;;;;;;;;;;6276505;22;20004;-70
2022/06/19 02:40:49;;;;;;;70.60;3.95;;;;;;;;;;6276431;22;20122;-69
2022/06/19 02:43:18;;;;;;;17.58;2.60;;;;;;;;;;6249568;22;20377;-69
2022/06/19 02:45:44;;;;;;;9.05;2.03;;;;;;;;;;6276431;22;20065;-69
2022/06/19 02:48:18;;;;;;;10.10;2.50;;;;;;;;;;6276416;22;19996;-69
2022/06/19 02:50:43;;;;;;;8.48;2.40;;;;;;;;;;6276238;22;20463;-69
2022/06/19 02:53:09;;;;;;;11.27;2.10;;;;;;;;;;6276409;22;20000;-69
2022/06/19 02:55:34;;;;;;;25.73;3.13;;;;;;;;;;6276501;22;20396;-69
2022/06/19 02:57:59;;;;;;;7.00;2.10;;;;;;;;;;6276490;22;20411;-69
2022/06/19 03:00:26;;;;;;;21.33;2.78;;;;;;;;;;6277209;22;20442;-69
2022/06/19 03:02:52;;;;;;;34.03;2.78;;;;;;;;;;6278539;22;20000;-69
2022/06/19 03:05:22;;;;;;;10.90;2.03;;;;;;;;;;6278513;22;19996;-69
2022/06/19 03:07:48;;;;;;;17.17;2.42;;;;;;;;;;6278396;22;20431;-69
2022/06/19 03:10:14;;;;;;;37.88;2.67;;;;;;;;;;6278384;22;20035;-70
2022/06/19 03:12:39;;;;;;;34.88;3.28;;;;;;;;;;6278433;22;20010;-69
2022/06/19 03:15:05;;;;;;;70.57;3.00;;;;;;;;;;6278403;22;20038;-70
2022/06/19 03:17:30;;;;;;;102.75;4.05;;;;;;;;;;6278358;22;20041;-69
2022/06/19 03:19:55;;;;;;;99.38;3.47;;;;;;;;;;6278385;22;20008;-69
2022/06/19 03:22:20;;;;;;;7.95;1.95;;;;;;;;;;6278610;22;20000;-69
2022/06/19 03:24:46;;;;;;;11.00;1.80;;;;;;;;;;6278485;22;20320;-69
2022/06/19 03:27:12;;;;;;;15.30;2.42;;;;;;;;;;6278289;22;20046;-69
2022/06/19 03:29:37;;;;;;;15.07;3.00;;;;;;;;;;6278376;22;20027;-69
2022/06/19 03:32:03;;;;;;;22.30;2.25;;;;;;;;;;6278284;22;19995;-69
2022/06/19 03:34:28;;;;;;;10.57;2.00;;;;;;;;;;6278478;22;20027;-69
2022/06/19 03:36:53;;;;;;;14.32;1.98;;;;;;;;;;6278253;22;20301;-69
2022/06/19 03:39:18;;;;;;;11.27;1.95;;;;;;;;;;6277834;22;20012;-69
2022/06/19 03:41:44;;;;;;;11.80;1.85;;;;;;;;;;6278215;22;20003;-69
2022/06/19 03:44:09;;;;;;;17.80;2.53;;;;;;;;;;6278084;22;20071;-69
2022/06/19 03:46:35;;;;;;;16.45;2.28;;;;;;;;;;6278293;22;20000;-69
2022/06/19 03:49:00;;;;;;;13.73;2.13;;;;;;;;;;6277986;22;20007;-69
2022/06/19 03:51:26;;;;;;;12.75;2.28;;;;;;;;;;6277506;22;20061;-69
2022/06/19 03:53:52;;;;;;;12.65;2.13;;;;;;;;;;6277952;22;20030;-69
2022/06/19 03:56:19;;;;;;;12.60;2.10;;;;;;;;;;6277932;22;20010;-69
2022/06/19 03:58:47;;;;;;;12.65;2.30;;;;;;;;;;6278149;22;20012;-69
2022/06/19 04:01:13;;;;;;;15.55;2.17;;;;;;;;;;6277649;22;20466;-69
2022/06/19 04:03:38;;;;;;;23.25;2.97;;;;;;;;;;6277904;22;20062;-69
2022/06/19 04:06:04;;;;;;;14.30;2.20;;;;;;;;;;6277653;22;20036;-70
2022/06/19 04:08:29;;;;;;;88.65;4.30;;;;;;;;;;6278018;22;19992;-69
2022/06/19 04:10:54;;;;;;;22.02;2.63;;;;;;;;;;6277726;22;19996;-69
2022/06/19 04:13:19;;;;;;;9.32;2.10;;;;;;;;;;6277148;22;20062;-69
2022/06/19 04:15:45;;;;;;;43.55;2.85;;;;;;;;;;6277883;22;19999;-69
2022/06/19 04:18:10;;;;;;;9.05;2.40;;;;;;;;;;6277656;22;20007;-69
2022/06/19 04:20:35;;;;;;;9.25;1.95;;;;;;;;;;6277654;22;20406;-69
2022/06/19 04:23:01;;;;;;;10.98;2.17;;;;;;;;;;6277720;22;19995;-69
2022/06/19 04:25:26;;;;;;;11.23;2.15;;;;;;;;;;6277591;22;20071;-70
2022/06/19 04:27:51;;;;;;;9.43;1.83;;;;;;;;;;6277439;22;20014;-69
2022/06/19 04:30:17;;;;;;;18.50;2.53;;;;;;;;;;6250575;22;19996;-69
2022/06/19 04:32:42;;;;;;;7.85;1.95;;;;;;;;;;6277699;22;20570;-69
2022/06/19 04:35:08;;;;;;;131.27;5.43;;;;;;;;;;6277897;22;20435;-69
2022/06/19 04:37:33;;;;;;;153.50;5.82;;;;;;;;;;6277683;22;20007;-69
2022/06/19 04:39:58;;;;;;;15.02;2.15;;;;;;;;;;6277465;22;20447;-69
2022/06/19 04:42:23;;;;;;;8.27;1.92;;;;;;;;;;6277705;22;20025;-69
2022/06/19 04:44:48;;;;;;;6.03;1.90;;;;;;;;;;6277628;22;19998;-69
2022/06/19 04:47:14;;;;;;;9.40;1.55;;;;;;;;;;6277653;22;20003;-69
2022/06/19 04:49:39;;;;;;;6.65;1.50;;;;;;;;;;6277487;22;20003;-69
2022/06/19 04:52:04;;;;;;;7.38;1.38;;;;;;;;;;6277727;22;20392;-69
2022/06/19 04:54:30;;;;;;;9.90;1.83;;;;;;;;;;6277596;22;20004;-69
2022/06/19 04:56:55;;;;;;;19.63;1.60;;;;;;;;;;6277628;22;20007;-69
2022/06/19 04:59:20;;;;;;;7.32;1.70;;;;;;;;;;6277349;22;20099;-69
2022/06/19 05:01:46;;;;;;;9.93;1.50;;;;;;;;;;6277572;22;20439;-69
2022/06/19 05:04:12;;;;;;;8.10;1.38;;;;;;;;;;6277255;22;20056;-69
2022/06/19 05:06:37;;;;;;;38.05;2.97;;;;;;;;;;6277536;22;19991;-70
2022/06/19 05:09:03;;;;;;;134.32;7.63;;;;;;;;;;6277245;22;20006;-69
2022/06/19 05:11:31;;;;;;;470.83;21.60;;;;;;;;;;6277176;22;20006;-70
2022/06/19 05:13:56;;;;;;;202.07;10.00;;;;;;;;;;6277932;22;20011;-70
2022/06/19 05:16:22;;;;;;;242.30;12.65;;;;;;;;;;6277244;22;20000;-70
2022/06/19 05:18:48;;;;;;;166.18;9.18;;;;;;;;;;6276877;22;20003;-70
2022/06/19 05:21:14;;;;;;;86.90;5.00;;;;;;;;;;6277337;22;20045;-70
2022/06/19 05:23:41;;;;;;;41.10;2.67;;;;;;;;;;6277298;22;20090;-69
2022/06/19 05:26:07;;;;;;;27.48;1.85;;;;;;;;;;6276955;22;20400;-70
2022/06/19 05:28:33;;;;;;;8.32;1.35;;;;;;;;;;6276904;22;20367;-70
2022/06/19 05:30:59;;;;;;;6.75;1.20;;;;;;;;;;6276720;22;20011;-69
2022/06/19 05:33:25;;;;;;;4.70;1.35;;;;;;;;;;6276967;22;20313;-70
2022/06/19 05:35:50;;;;;;;3.10;1.20;;;;;;;;;;6276729;22;20006;-69
2022/06/19 05:38:16;;;;;;;9.85;1.48;;;;;;;;;;6276590;22;20003;-70
2022/06/19 05:40:41;;;;;;;6.47;2.03;;;;;;;;;;6276904;22;20086;-69
2022/06/19 05:43:06;;;;;;;4.53;1.30;;;;;;;;;;6277075;22;20355;-69
2022/06/19 05:45:32;;;;;;;7.45;1.23;;;;;;;;;;6277098;22;20004;-70
2022/06/19 05:47:57;;;;;;;9.27;1.65;;;;;;;;;;6277022;22;20485;-69
2022/06/19 05:50:22;;;;;;;5.97;1.38;;;;;;;;;;6277056;22;20456;-69
2022/06/19 05:52:47;;;;;;;93.95;5.85;;;;;;;;;;6276919;22;20324;-69
2022/06/19 05:55:13;;;;;;;3.60;1.20;;;;;;;;;;6276931;22;20011;-70
2022/06/19 05:57:38;;;;;;;50.92;2.92;;;;;;;;;;6276952;22;20000;-70
2022/06/19 06:00:04;;;;;;;3.90;1.00;;;;;;;;;;6276599;22;20014;-70
2022/06/19 06:02:29;;;;;;;5.65;1.30;;;;;;;;;;6276910;22;20018;-71
2022/06/19 06:04:55;;;;;;;6.30;1.40;;;;;;;;;;6276936;22;20000;-70
2022/06/19 06:07:20;;;;;;;4.18;1.50;;;;;;;;;;6276690;22;20004;-70
2022/06/19 06:09:45;;;;;;;9.02;1.40;;;;;;;;;;6276298;22;20007;-70
2022/06/19 06:12:11;;;;;;;6.57;1.40;;;;;;;;;;6277036;22;19999;-70
2022/06/19 06:14:36;;;;;;;3.60;1.40;;;;;;;;;;6276550;22;20071;-70
2022/06/19 06:17:01;;;;;;;8.98;1.40;;;;;;;;;;6276624;22;20000;-70
2022/06/19 06:19:27;;;;;;;5.72;1.38;;;;;;;;;;6276759;22;20035;-71
2022/06/19 06:21:52;;;;;;;3.78;1.15;;;;;;;;;;6276648;22;20010;-71
2022/06/19 06:24:18;;;;;;;3.53;1.30;;;;;;;;;;6276483;22;20038;-71
2022/06/19 06:26:43;;;;;;;10.68;2.10;;;;;;;;;;6276513;22;20006;-71
2022/06/19 06:29:08;;;;;;;6.47;1.67;;;;;;;;;;6276370;22;20067;-71
2022/06/19 06:31:34;;;;;;;6.95;1.50;;;;;;;;;;6275838;22;20007;-68
2022/06/19 06:33:59;;;;;;;5.85;1.48;;;;;;;;;;6276402;22;20363;-70
2022/06/19 06:36:25;;;;;;;8.27;2.08;;;;;;;;;;6275521;22;20053;-69
2022/06/19 06:38:50;;;;;;;7.55;1.55;;;;;;;;;;6276304;22;20016;-69
2022/06/19 06:41:15;;;;;;;6.53;1.65;;;;;;;;;;6276000;22;20408;-69
2022/06/19 06:43:42;;;;;;;7.90;1.67;;;;;;;;;;6276240;22;20031;-69
2022/06/19 06:46:08;;;;;;;8.20;1.77;;;;;;;;;;6276433;22;20004;-68
2022/06/19 06:48:34;;;;;;;4.32;1.70;;;;;;;;;;6276120;22;20419;-71
2022/06/19 06:50:59;;;;;;;8.63;1.75;;;;;;;;;;6276630;22;20007;-71
2022/06/19 06:53:24;;;;;;;4.80;1.38;;;;;;;;;;6276148;22;20062;-71
2022/06/19 06:55:50;;;;;;;8.95;1.73;;;;;;;;;;6276399;22;19996;-70
2022/06/19 06:58:15;;;;;;;6.15;1.30;;;;;;;;;;6276429;22;20079;-71
2022/06/19 07:00:42;;;;;;;6.65;1.40;;;;;;;;;;6276086;22;20470;-71
2022/06/19 07:03:09;;;;;;;6.88;1.50;;;;;;;;;;6276089;22;20477;-71
2022/06/19 07:05:34;;;;;;;6.95;1.65;;;;;;;;;;6276498;22;20004;-71
2022/06/19 07:08:00;;;;;;;8.75;1.65;;;;;;;;;;6276189;22;20053;-71
2022/06/19 07:10:26;;;;;;;5.45;1.50;;;;;;;;;;6249330;22;20053;-71
2022/06/19 07:12:51;;;;;;;6.88;1.80;;;;;;;;;;6276206;22;20106;-71
2022/06/19 07:15:16;;;;;;;4.07;1.10;;;;;;;;;;6276172;22;20007;-71
2022/06/19 07:17:42;;;;;;;6.22;1.33;;;;;;;;;;6276383;22;20409;-71
2022/06/19 07:20:07;;;;;;;7.97;1.55;;;;;;;;;;6276173;22;20439;-71
2022/06/19 07:22:32;;;;;;;6.07;1.77;;;;;;;;;;6276209;22;20087;-71
2022/06/19 07:24:57;;;;;;;7.85;1.70;;;;;;;;;;6276169;22;20082;-71
2022/06/19 07:27:23;;;;;;;11.15;1.60;;;;;;;;;;6275987;22;20301;-71
2022/06/19 07:29:48;;;;;;;4.75;1.40;;;;;;;;;;6276467;22;20011;-71
2022/06/19 07:32:14;;;;;;;11.00;1.60;;;;;;;;;;6276502;22;19995;-69
2022/06/19 07:34:41;;;;;;;8.45;1.60;;;;;;;;;;6275946;22;20424;-71
2022/06/19 07:37:06;;;;;;;7.63;1.52;;;;;;;;;;6276360;22;20023;-68
2022/06/19 07:39:32;;;;;;;7.38;1.58;;;;;;;;;;6275780;22;20007;-69
2022/06/19 07:41:58;;;;;;;7.95;1.77;;;;;;;;;;6276352;22;20007;-69
2022/06/19 07:44:23;;;;;;;5.80;1.42;;;;;;;;;;6275362;22;20038;-68
2022/06/19 07:50:16;;;;;;;8.27;1.50;;;;;;;;;;6277492;22;20046;-71
2022/06/19 07:52:21;;;;;;;8.63;1.83;;;;;;;;;;6266083;22;20301;-69
2022/06/19 07:54:47;;;;;;;6.85;1.80;;;;;;;;;;6277955;22;19999;-69
2022/06/19 07:57:12;;;;;;;6.35;1.92;;;;;;;;;;6277823;22;20025;-70
2022/06/19 07:59:37;;;;;;;5.95;1.73;;;;;;;;;;6277990;22;20023;-70
2022/06/19 08:02:02;;;;;;;7.40;1.83;;;;;;;;;;6278374;22;20030;-70
2022/06/19 08:04:27;;;;;;;11.05;1.58;;;;;;;;;;6277944;22;20011;-70
2022/06/19 08:06:53;;;;;;;6.47;1.87;;;;;;;;;;6278165;22;20006;-70
2022/06/19 08:09:18;;;;;;;6.63;1.80;;;;;;;;;;6277959;22;20335;-70
2022/06/19 08:11:43;;;;;;;7.95;1.75;;;;;;;;;;6277982;22;20385;-70
2022/06/19 08:14:08;;;;;;;9.85;2.17;;;;;;;;;;6277945;22;19991;-70
2022/06/19 08:16:34;;;;;;;7.20;1.80;;;;;;;;;;6277573;22;20081;-70
2022/06/19 08:18:59;;;;;;;5.47;1.60;;;;;;;;;;6277547;22;20286;-70
2022/06/19 08:21:24;;;;;;;5.50;1.90;;;;;;;;;;6277672;22;20435;-70
2022/06/19 08:23:50;;;;;;;7.43;1.47;;;;;;;;;;6277702;22;19996;-70
2022/06/19 08:26:15;;;;;;;7.17;1.80;;;;;;;;;;6277604;22;20228;-70
2022/06/19 08:31:06;;;;;;;8.10;2.03;;;;;;;;;;6281548;22;20003;-70
2022/06/19 08:33:31;;;;;;;6.80;1.67;;;;;;;;;;6277586;22;20228;-70
2022/06/19 08:35:59;;;;;;;7.67;1.77;;;;;;;;;;6277933;22;19992;-70
2022/06/19 08:38:28;;;;;;;7.03;2.00;;;;;;;;;;6277784;22;20548;-70
2022/06/19 08:41:03;;;;;;;6.30;1.90;;;;;;;;;;6277795;22;20127;-70
2022/06/19 08:43:33;;;;;;;6.70;1.90;;;;;;;;;;6277716;22;20004;-70
2022/06/19 08:45:59;;;;;;;6.53;1.98;;;;;;;;;;6277363;22;20545;-70
2022/06/19 08:48:42;;;;;;;6.47;1.63;;;;;;;;;;6277742;22;20020;-70
2022/06/19 08:51:21;;;;;;;6.53;1.67;;;;;;;;;;6277741;22;20355;-70
2022/06/19 08:53:53;;;;;;;6.07;1.58;;;;;;;;;;6277475;22;20054;-70
2022/06/19 08:56:38;;;;;;;5.65;1.58;;;;;;;;;;6277725;22;20003;-70
2022/06/19 08:59:12;;;;;;;7.85;1.27;;;;;;;;;;6255154;22;20037;-70
2022/06/19 09:01:51;;;;;;;8.32;1.40;;;;;;;;;;6277663;22;20003;-72
2022/06/19 09:07:27;;;;;;;4.15;1.40;;;;;;;;;;6277182;22;20404;-72
2022/06/19 09:10:16;;;;;;;6.03;1.50;;;;;;;;;;6277383;22;20022;-73
2022/06/19 09:12:50;;;;;;;6.47;1.60;;;;;;;;;;6277257;22;20004;-72
2022/06/19 09:15:17;;;;;;;5.43;1.50;;;;;;;;;;6277822;22;20000;-70
2022/06/19 09:17:42;;;;;;;8.15;1.60;;;;;;;;;;6276826;22;20305;-70
2022/06/19 09:20:17;;;;;;;6.28;1.65;;;;;;;;;;6277295;22;20010;-70
2022/06/19 09:23:01;;;;;;;4.47;1.50;;;;;;;;;;6277195;22;20015;-70
2022/06/19 09:25:27;;;;;;;6.65;1.50;;;;;;;;;;6277171;22;20004;-70
2022/06/19 09:28:11;;;;;;;3.78;1.20;;;;;;;;;;6277020;22;20008;-70
2022/06/19 09:30:40;;;;;;;6.22;1.38;;;;;;;;;;6276126;22;20420;-70
2022/06/19 09:33:14;;;;;;;5.60;1.27;;;;;;;;;;6277570;22;20006;-72
2022/06/19 09:35:44;;;;;;;7.88;1.30;;;;;;;;;;6277202;22;20008;-72
2022/06/19 09:38:15;;;;;;;4.00;1.13;;;;;;;;;;6276606;22;20508;-72
2022/06/19 09:40:41;;;;;;;7.50;1.55;;;;;;;;;;6277173;22;20008;-72
2022/06/19 09:43:29;;;;;;;4.82;1.20;;;;;;;;;;6275203;22;19988;-71
2022/06/19 09:46:26;;;;;;;6.85;1.60;;;;;;;;;;6276875;22;20007;-72
2022/06/19 09:49:02;;;;;;;5.10;1.20;;;;;;;;;;6208662;22;20007;-72
2022/06/19 09:51:46;;;;;;;4.80;1.10;;;;;;;;;;6276522;22;20087;-72
2022/06/19 09:54:16;;;;;;;4.38;1.10;;;;;;;;;;6276180;22;20408;-71
2022/06/19 09:56:46;;;;;;;6.28;1.15;;;;;;;;;;6276717;22;20000;-71
2022/06/19 09:59:14;;;;;;;5.28;0.98;;;;;;;;;;6276581;22;20090;-71
2022/06/19 10:01:41;;;;;;;6.65;1.30;;;;;;;;;;6276781;22;19988;-71
2022/06/19 10:04:11;;;;;;;4.05;0.90;;;;;;;;;;6276268;22;20008;-71
2022/06/19 10:06:43;;;;;;;3.47;0.90;;;;;;;;;;6276823;22;20008;-71
2022/06/19 10:09:11;;;;;;;5.40;1.30;;;;;;;;;;6275948;22;20039;-71
2022/06/19 10:11:37;;;;;;;7.28;0.90;;;;;;;;;;6275733;22;20007;-71
2022/06/19 10:14:04;;;;;;;2.78;0.80;;;;;;;;;;6276717;22;20420;-71
2022/06/19 10:16:29;;;;;;;5.75;0.93;;;;;;;;;;6275737;22;20432;-71
2022/06/19 10:18:56;;;;;;;3.67;0.90;;;;;;;;;;6276415;22;20006;-71
2022/06/19 10:24:19;;;;;;;5.90;1.40;;;;;;;;;;6276166;22;20015;-70
2022/06/19 10:26:44;;;;;;;5.35;1.10;;;;;;;;;;6276338;22;20343;-70
2022/06/19 10:29:10;;;;;;;5.25;1.17;;;;;;;;;;6276505;22;20099;-70
2022/06/19 10:31:36;;;;;;;5.40;1.15;;;;;;;;;;6276712;22;20032;-70
2022/06/19 10:34:13;;;;;;;5.22;0.90;;;;;;;;;;6276348;22;20004;-70
2022/06/19 10:36:41;;;;;;;2.85;0.90;;;;;;;;;;6276760;22;20007;-70
2022/06/19 10:39:25;;;;;;;3.45;0.95;;;;;;;;;;6276295;22;20458;-71
2022/06/19 10:42:06;;;;;;;8.63;1.00;;;;;;;;;;6276654;22;20035;-71
2022/06/19 10:44:37;;;;;;;2.53;0.80;;;;;;;;;;6276492;22;20046;-70
2022/06/19 10:47:05;;;;;;;4.53;1.10;;;;;;;;;;6276541;22;20003;-70
2022/06/19 10:49:30;;;;;;;4.03;1.00;;;;;;;;;;6276664;22;20035;-70
2022/06/19 10:52:05;;;;;;;5.10;1.00;;;;;;;;;;6276558;22;19998;-70
2022/06/19 10:54:31;;;;;;;5.22;0.93;;;;;;;;;;6276632;22;20079;-70
2022/06/19 10:57:05;;;;;;;6.80;1.10;;;;;;;;;;6276631;22;20028;-70
2022/06/19 10:59:30;;;;;;;4.50;1.20;;;;;;;;;;6276326;22;20007;-71
2022/06/19 11:05:08;;;;;;;5.32;1.05;;;;;;;;;;6276051;22;20467;-70
2022/06/19 11:07:33;;;;;;;4.13;1.00;;;;;;;;;;6259394;22;20445;-70
2022/06/19 11:10:01;;;;;;;6.28;1.13;;;;;;;;;;6276496;22;20016;-70
2022/06/19 11:12:26;;;;;;;3.13;0.75;;;;;;;;;;6276148;22;20408;-70
2022/06/19 11:14:56;;;;;;;3.67;1.20;;;;;;;;;;6275814;22;20079;-70
2022/06/19 11:17:35;;;;;;;3.70;1.20;;;;;;;;;;6276564;22;19999;-70
2022/06/19 11:20:15;;;;;;;5.18;0.90;;;;;;;;;;6276082;22;20007;-70
2022/06/19 11:22:41;;;;;;;4.07;0.88;;;;;;;;;;6278237;22;19999;-71
2022/06/19 11:25:19;;;;;;;5.15;1.10;;;;;;;;;;6278541;22;20044;-71
2022/06/19 11:27:51;;;;;;;6.15;1.20;;;;;;;;;;6278421;22;20008;-71
2022/06/19 11:30:25;;;;;;;9.40;2.15;;;;;;;;;;6278076;22;20420;-71
2022/06/19 11:32:50;;;;;;;2.70;0.93;;;;;;;;;;6278103;22;20014;-71
2022/06/19 11:35:16;;;;;;;4.95;0.93;;;;;;;;;;6278432;22;20312;-70
2022/06/19 11:37:51;;;;;;;7.57;1.02;;;;;;;;;;6278410;22;19999;-70
2022/06/19 11:40:37;;;;;;;5.18;1.10;;;;;;;;;;6278048;22;20436;-70
2022/06/19 11:43:04;;;;;;;5.13;1.00;;;;;;;;;;6276847;22;20003;-71
2022/06/19 11:45:29;;;;;;;7.38;0.95;;;;;;;;;;6277905;22;20440;-71
2022/06/19 11:47:54;;;;;;;3.95;1.10;;;;;;;;;;6278212;22;20049;-70
2022/06/19 11:50:21;;;;;;;3.03;0.90;;;;;;;;;;6278401;22;20015;-71
2022/06/19 11:52:52;;;;;;;4.57;1.10;;;;;;;;;;6277776;22;20014;-71
2022/06/19 11:55:20;;;;;;;2.63;0.90;;;;;;;;;;6278437;22;20074;-71
2022/06/19 11:57:48;;;;;;;3.28;1.25;;;;;;;;;;6277615;22;20380;-71
2022/06/19 12:00:22;;;;;;;4.78;1.15;;;;;;;;;;6278086;22;20039;-71
2022/06/19 12:02:52;;;;;;;4.45;1.10;;;;;;;;;;6277989;22;20336;-71
2022/06/19 12:05:46;;;;;;;6.63;1.20;;;;;;;;;;6278130;22;20061;-70
2022/06/19 12:08:14;;;;;;;5.43;1.20;;;;;;;;;;6250780;22;20336;-71
2022/06/19 12:10:40;;;;;;;5.40;0.98;;;;;;;;;;6277647;22;20007;-71
2022/06/19 12:13:17;;;;;;;3.75;1.00;;;;;;;;;;6277909;22;20002;-70
2022/06/19 12:15:51;;;;;;;2.60;0.95;;;;;;;;;;6277662;22;20000;-70
2022/06/19 12:18:17;;;;;;;5.15;1.17;;;;;;;;;;6277995;22;20373;-70
2022/06/19 12:20:42;;;;;;;3.63;1.25;;;;;;;;;;6277780;22;20007;-70
2022/06/19 12:23:15;;;;;;;3.95;1.08;;;;;;;;;;6277921;22;20297;-71
2022/06/19 12:25:49;;;;;;;7.32;1.15;;;;;;;;;;6277726;22;20356;-70
2022/06/19 12:28:33;;;;;;;5.45;1.10;;;;;;;;;;6277566;22;20049;-70
2022/06/19 12:30:58;;;;;;;;;;;;;;;;;;6278309;22;20336;-70
2022/06/19 12:33:35;;;;;;;5.10;1.10;;;;;;;;;;6277292;22;19907;-70
2022/06/19 12:36:01;;;;;;;5.30;1.45;;;;;;;;;;6277885;22;20229;-70
2022/06/19 12:38:30;;;;;;;6.50;1.73;;;;;;;;;;6277840;22;20097;-70
2022/06/19 12:41:17;;;;;;;5.97;1.73;;;;;;;;;;6250597;22;20331;-70
2022/06/19 12:43:59;;;;;;;4.05;1.35;;;;;;;;;;6277316;22;20439;-70
2022/06/19 12:46:24;;;;;;;5.28;1.42;;;;;;;;;;6277625;22;20031;-70
2022/06/19 12:48:59;;;;;;;9.60;2.00;;;;;;;;;;6277700;22;20293;-70
2022/06/19 12:51:34;;;;;;;5.35;1.52;;;;;;;;;;6277365;22;20420;-70
2022/06/19 12:54:03;;;;;;;5.03;1.73;;;;;;;;;;6277558;22;19999;-70
2022/06/19 12:56:37;;;;;;;8.88;1.58;;;;;;;;;;6277613;22;20000;-71
2022/06/19 12:59:02;;;;;;;3.22;1.58;;;;;;;;;;6277480;22;20516;-70
2022/06/19 13:01:33;;;;;;;4.20;1.70;;;;;;;;;;6277548;22;20027;-70
2022/06/19 13:04:17;;;;;;;5.35;1.67;;;;;;;;;;6277726;22;19992;-70
2022/06/19 13:07:01;;;;;;;5.15;1.60;;;;;;;;;;6277374;22;20008;-70
2022/06/19 13:09:43;;;;;;;5.43;1.42;;;;;;;;;;6277432;22;20015;-70
2022/06/19 13:12:11;;;;;;;4.25;1.40;;;;;;;;;;6277457;22;20014;-70
2022/06/19 13:14:36;;;;;;;6.90;2.13;;;;;;;;;;6277261;22;20000;-70
2022/06/19 13:17:20;;;;;;;4.45;1.75;;;;;;;;;;6277477;22;20015;-70
2022/06/19 13:19:46;;;;;;;5.40;1.90;;;;;;;;;;6277127;22;20004;-70
2022/06/19 13:22:11;;;;;;;7.22;2.00;;;;;;;;;;6277690;22;20008;-70
2022/06/19 13:24:47;;;;;;;3.45;1.65;;;;;;;;;;6276715;22;20000;-70
2022/06/19 13:27:39;;;;;;;5.22;1.70;;;;;;;;;;6277269;22;20003;-71
2022/06/19 13:30:12;;;;;;;4.20;2.38;;;;;;;;;;6277158;22;20041;-71
2022/06/19 13:32:56;;;;;;;3.42;1.55;;;;;;;;;;6276759;22;20004;-71
2022/06/19 13:35:30;;;;;;;7.43;2.67;;;;;;;;;;6277081;22;20004;-71
2022/06/19 13:38:13;;;;;;;4.97;2.25;;;;;;;;;;6277065;22;20121;-71
2022/06/19 13:40:47;;;;;;;4.13;1.90;;;;;;;;;;6276809;22;20004;-70
2022/06/19 13:43:17;;;;;;;9.25;2.38;;;;;;;;;;6277145;22;19995;-71
2022/06/19 13:45:43;;;;;;;9.00;2.10;;;;;;;;;;6276957;22;20010;-71
2022/06/19 13:48:14;;;;;;;6.97;2.50;;;;;;;;;;6276690;22;20023;-70
2022/06/19 13:50:41;;;;;;;9.88;2.38;;;;;;;;;;6276699;22;20016;-71
2022/06/19 13:53:12;;;;;;;7.30;2.28;;;;;;;;;;6277020;22;20381;-71
2022/06/19 13:56:04;;;;;;;8.90;2.38;;;;;;;;;;6276915;22;20015;-70
2022/06/19 13:58:32;;;;;;;5.22;2.58;;;;;;;;;;6270791;22;20008;-71
2022/06/19 14:01:04;;;;;;;9.27;2.72;;;;;;;;;;6276581;22;20083;-71
2022/06/19 14:06:48;;;;;;;7.60;2.70;;;;;;;;;;6240548;22;20007;-70
2022/06/19 14:09:14;;;;;;;6.63;2.63;;;;;;;;;;6275687;22;20043;-71
2022/06/19 14:14:28;;;;;;;8.82;2.50;;;;;;;;;;6276393;22;20006;-70
2022/06/19 14:17:17;;;;;;;8.82;2.08;;;;;;;;;;6276979;22;20100;-70
2022/06/19 14:19:47;;;;;;;7.00;2.35;;;;;;;;;;6219008;22;20010;-70
2022/06/19 14:22:31;;;;;;;6.63;2.25;;;;;;;;;;6276616;22;20428;-70
2022/06/19 14:24:59;;;;;;;6.65;1.98;;;;;;;;;;6276583;22;19999;-70
2022/06/19 14:27:33;;;;;;;5.85;2.25;;;;;;;;;;6276683;22;20007;-71
2022/06/19 14:29:59;;;;;;;8.38;2.33;;;;;;;;;;6276148;22;20471;-71
2022/06/19 14:32:27;;;;;;;7.55;2.47;;;;;;;;;;6276660;22;20012;-71
2022/06/19 14:34:52;;;;;;;5.93;2.10;;;;;;;;;;6276917;22;19992;-71
2022/06/19 14:37:26;;;;;;;9.50;2.40;;;;;;;;;;6277055;22;20304;-71
2022/06/19 14:39:52;;;;;;;8.85;2.20;;;;;;;;;;6243944;23;20020;-71
2022/06/19 14:42:18;;;;;;;11.60;2.47;;;;;;;;;;6245881;22;20003;-70
2022/06/19 14:44:47;;;;;;;9.50;2.00;;;;;;;;;;6245721;22;20008;-71
2022/06/19 14:47:15;;;;;;;6.78;2.17;;;;;;;;;;6246151;22;20313;-70
2022/06/19 14:49:59;;;;;;;7.22;2.33;;;;;;;;;;6245719;22;20011;-70
2022/06/19 14:52:39;;;;;;;10.25;2.35;;;;;;;;;;6246024;22;20320;-71
2022/06/19 14:55:11;;;;;;;9.55;2.55;;;;;;;;;;6246090;22;19998;-70
2022/06/19 14:57:57;;;;;;;8.18;2.20;;;;;;;;;;6245458;23;20011;-71
2022/06/19 15:00:22;;;;;;;6.82;2.22;;;;;;;;;;6245707;22;20412;-70
2022/06/19 15:02:47;;;;;;;7.70;2.60;;;;;;;;;;6236601;23;20058;-71
2022/06/19 15:05:31;;;;;;;11.15;1.92;;;;;;;;;;6241123;22;20000;-71
2022/06/19 15:08:02;;;;;;;8.05;2.38;;;;;;;;;;6245045;23;20015;-71
2022/06/19 15:10:38;;;;;;;8.88;1.95;;;;;;;;;;6244230;23;20008;-71